sensor_id;sensor_type;location;lat;lon;timestamp;P1;durP1;ratioP1;P2;durP2;ratioP2
63032;SDS011;49121;38.932;-9.018;2022-11-11T00:03:20;5.93;;;2.85;;
63032;SDS011;49121;38.932;-9.018;2022-11-11T00:05:39;6.20;;;2.47;;
63032;SDS011;49121;38.932;-9.018;2022-11-11T00:07:57;8.40;;;2.15;;
63032;SDS011;49121;38.932;-9.018;2022-11-11T00:10:17;6.50;;;2.30;;
63032;SDS011;49121;38.932;-9.018;2022-11-11T00:12:37;6.22;;;2.50;;
63032;SDS011;49121;38.932;-9.018;2022-11-11T00:14:56;5.20;;;2.60;;
63032;SDS011;49121;38.932;-9.018;2022-11-11T00:17:16;6.35;;;2.38;;
63032;SDS011;49121;38.932;-9.018;2022-11-11T00:20:03;12.65;;;3.30;;
63032;SDS011;49121;38.932;-9.018;2022-11-11T00:22:41;7.68;;;2.10;;
63032;SDS011;49121;38.932;-9.018;2022-11-11T00:25:19;5.05;;;2.28;;
63032;SDS011;49121;38.932;-9.018;2022-11-11T00:27:39;4.13;;;2.30;;
63032;SDS011;49121;38.932;-9.018;2022-11-11T00:29:59;6.15;;;2.72;;
63032;SDS011;49121;38.932;-9.018;2022-11-11T00:32:18;11.88;;;2.30;;
63032;SDS011;49121;38.932;-9.018;2022-11-11T00:34:52;5.97;;;2.42;;
63032;SDS011;49121;38.932;-9.018;2022-11-11T00:37:32;6.15;;;2.53;;
63032;SDS011;49121;38.932;-9.018;2022-11-11T00:39:52;4.00;;;2.42;;
63032;SDS011;49121;38.932;-9.018;2022-11-11T00:42:11;9.50;;;2.63;;
63032;SDS011;49121;38.932;-9.018;2022-11-11T00:44:30;12.40;;;2.83;;
63032;SDS011;49121;38.932;-9.018;2022-11-11T00:46:49;4.38;;;2.30;;
63032;SDS011;49121;38.932;-9.018;2022-11-11T00:49:26;4.50;;;2.17;;
63032;SDS011;49121;38.932;-9.018;2022-11-11T00:52:05;10.05;;;2.42;;
63032;SDS011;49121;38.932;-9.018;2022-11-11T00:54:24;6.55;;;2.33;;
63032;SDS011;49121;38.932;-9.018;2022-11-11T00:56:43;5.28;;;1.92;;
63032;SDS011;49121;38.932;-9.018;2022-11-11T00:59:05;4.38;;;2.42;;
63032;SDS011;49121;38.932;-9.018;2022-11-11T01:01:25;4.53;;;2.38;;
63032;SDS011;49121;38.932;-9.018;2022-11-11T01:03:44;8.68;;;2.58;;
63032;SDS011;49121;38.932;-9.018;2022-11-11T01:06:04;3.47;;;2.30;;
63032;SDS011;49121;38.932;-9.018;2022-11-11T01:08:23;5.38;;;2.13;;
63032;SDS011;49121;38.932;-9.018;2022-11-11T01:10:43;5.37;;;2.10;;
63032;SDS011;49121;38.932;-9.018;2022-11-11T01:13:04;7.90;;;2.30;;
63032;SDS011;49121;38.932;-9.018;2022-11-11T01:15:34;5.65;;;2.50;;
63032;SDS011;49121;38.932;-9.018;2022-11-11T01:17:53;7.72;;;2.72;;
63032;SDS011;49121;38.932;-9.018;2022-11-11T01:20:12;4.25;;;2.10;;
63032;SDS011;49121;38.932;-9.018;2022-11-11T01:22:31;4.50;;;2.70;;
63032;SDS011;49121;38.932;-9.018;2022-11-11T01:24:50;5.38;;;2.50;;
63032;SDS011;49121;38.932;-9.018;2022-11-11T01:27:10;9.32;;;2.75;;
63032;SDS011;49121;38.932;-9.018;2022-11-11T01:29:28;4.97;;;2.50;;
63032;SDS011;49121;38.932;-9.018;2022-11-11T01:37:22;9.05;;;3.30;;
63032;SDS011;49121;38.932;-9.018;2022-11-11T01:39:41;7.30;;;2.40;;
63032;SDS011;49121;38.932;-9.018;2022-11-11T01:42:00;6.38;;;3.03;;
63032;SDS011;49121;38.932;-9.018;2022-11-11T01:44:39;11.93;;;3.15;;
63032;SDS011;49121;38.932;-9.018;2022-11-11T01:47:03;7.30;;;3.08;;
63032;SDS011;49121;38.932;-9.018;2022-11-11T01:51:54;10.57;;;3.28;;
63032;SDS011;49121;38.932;-9.018;2022-11-11T01:54:16;6.13;;;2.78;;
63032;SDS011;49121;38.932;-9.018;2022-11-11T01:59:26;7.28;;;2.85;;
63032;SDS011;49121;38.932;-9.018;2022-11-11T02:01:46;9.63;;;3.30;;
63032;SDS011;49121;38.932;-9.018;2022-11-11T02:04:06;7.20;;;2.88;;
63032;SDS011;49121;38.932;-9.018;2022-11-11T02:06:46;5.53;;;2.53;;
63032;SDS011;49121;38.932;-9.018;2022-11-11T02:09:08;4.28;;;2.80;;
63032;SDS011;49121;38.932;-9.018;2022-11-11T02:11:29;10.38;;;3.20;;
63032;SDS011;49121;38.932;-9.018;2022-11-11T02:14:10;7.55;;;3.42;;
63032;SDS011;49121;38.932;-9.018;2022-11-11T02:22:18;6.90;;;2.72;;
63032;SDS011;49121;38.932;-9.018;2022-11-11T02:30:04;8.55;;;2.70;;
63032;SDS011;49121;38.932;-9.018;2022-11-11T02:32:25;7.10;;;3.50;;
63032;SDS011;49121;38.932;-9.018;2022-11-11T02:37:30;6.13;;;2.63;;
63032;SDS011;49121;38.932;-9.018;2022-11-11T02:39:50;8.20;;;2.50;;
63032;SDS011;49121;38.932;-9.018;2022-11-11T02:51:03;8.27;;;3.20;;
63032;SDS011;49121;38.932;-9.018;2022-11-11T02:53:24;14.15;;;4.25;;
63032;SDS011;49121;38.932;-9.018;2022-11-11T02:55:43;6.32;;;2.78;;
63032;SDS011;49121;38.932;-9.018;2022-11-11T02:58:02;7.80;;;3.25;;
63032;SDS011;49121;38.932;-9.018;2022-11-11T03:00:22;8.63;;;3.78;;
63032;SDS011;49121;38.932;-9.018;2022-11-11T03:05:41;7.68;;;3.20;;
63032;SDS011;49121;38.932;-9.018;2022-11-11T03:08:01;4.07;;;2.22;;
63032;SDS011;49121;38.932;-9.018;2022-11-11T03:10:20;4.25;;;2.83;;
63032;SDS011;49121;38.932;-9.018;2022-11-11T03:12:39;6.18;;;2.88;;
63032;SDS011;49121;38.932;-9.018;2022-11-11T03:15:17;6.40;;;3.17;;
63032;SDS011;49121;38.932;-9.018;2022-11-11T03:17:36;8.60;;;3.65;;
63032;SDS011;49121;38.932;-9.018;2022-11-11T03:19:59;6.22;;;2.60;;
63032;SDS011;49121;38.932;-9.018;2022-11-11T03:22:38;6.10;;;2.58;;
63032;SDS011;49121;38.932;-9.018;2022-11-11T03:24:58;6.95;;;2.72;;
63032;SDS011;49121;38.932;-9.018;2022-11-11T03:27:37;10.57;;;2.83;;
63032;SDS011;49121;38.932;-9.018;2022-11-11T03:30:05;5.22;;;2.97;;
63032;SDS011;49121;38.932;-9.018;2022-11-11T03:32:25;4.03;;;2.60;;
63032;SDS011;49121;38.932;-9.018;2022-11-11T03:34:44;6.68;;;2.88;;
63032;SDS011;49121;38.932;-9.018;2022-11-11T03:37:22;7.93;;;2.95;;
63032;SDS011;49121;38.932;-9.018;2022-11-11T03:39:59;9.18;;;2.80;;
63032;SDS011;49121;38.932;-9.018;2022-11-11T03:42:19;10.95;;;3.10;;
63032;SDS011;49121;38.932;-9.018;2022-11-11T03:44:38;8.95;;;4.03;;
63032;SDS011;49121;38.932;-9.018;2022-11-11T03:46:57;4.88;;;2.92;;
63032;SDS011;49121;38.932;-9.018;2022-11-11T03:49:16;5.43;;;3.25;;
63032;SDS011;49121;38.932;-9.018;2022-11-11T03:51:36;7.55;;;3.20;;
63032;SDS011;49121;38.932;-9.018;2022-11-11T03:53:55;11.68;;;2.60;;
63032;SDS011;49121;38.932;-9.018;2022-11-11T03:56:14;7.85;;;2.97;;
63032;SDS011;49121;38.932;-9.018;2022-11-11T03:58:33;7.43;;;3.17;;
63032;SDS011;49121;38.932;-9.018;2022-11-11T04:00:53;7.30;;;3.08;;
63032;SDS011;49121;38.932;-9.018;2022-11-11T04:03:14;7.27;;;3.03;;
63032;SDS011;49121;38.932;-9.018;2022-11-11T04:05:54;6.72;;;3.25;;
63032;SDS011;49121;38.932;-9.018;2022-11-11T04:08:35;5.82;;;3.00;;
63032;SDS011;49121;38.932;-9.018;2022-11-11T04:11:19;6.40;;;3.25;;
63032;SDS011;49121;38.932;-9.018;2022-11-11T04:13:43;8.52;;;3.50;;
63032;SDS011;49121;38.932;-9.018;2022-11-11T04:16:24;9.27;;;3.55;;
63032;SDS011;49121;38.932;-9.018;2022-11-11T04:18:44;6.53;;;3.15;;
63032;SDS011;49121;38.932;-9.018;2022-11-11T04:21:35;5.88;;;2.80;;
63032;SDS011;49121;38.932;-9.018;2022-11-11T04:24:01;7.22;;;3.20;;
63032;SDS011;49121;38.932;-9.018;2022-11-11T04:26:20;8.55;;;3.10;;
63032;SDS011;49121;38.932;-9.018;2022-11-11T04:31:35;9.93;;;3.20;;
63032;SDS011;49121;38.932;-9.018;2022-11-11T04:34:15;10.68;;;4.05;;
63032;SDS011;49121;38.932;-9.018;2022-11-11T04:36:34;9.68;;;3.00;;
63032;SDS011;49121;38.932;-9.018;2022-11-11T04:38:53;6.25;;;3.17;;
63032;SDS011;49121;38.932;-9.018;2022-11-11T04:41:48;11.38;;;3.20;;
63032;SDS011;49121;38.932;-9.018;2022-11-11T04:44:25;5.72;;;2.95;;
63032;SDS011;49121;38.932;-9.018;2022-11-11T04:47:03;9.32;;;3.22;;
63032;SDS011;49121;38.932;-9.018;2022-11-11T04:49:22;4.95;;;2.70;;
63032;SDS011;49121;38.932;-9.018;2022-11-11T04:51:41;7.43;;;3.33;;
63032;SDS011;49121;38.932;-9.018;2022-11-11T04:54:19;4.18;;;2.45;;
63032;SDS011;49121;38.932;-9.018;2022-11-11T04:56:39;8.20;;;3.40;;
63032;SDS011;49121;38.932;-9.018;2022-11-11T04:59:15;6.85;;;3.20;;
63032;SDS011;49121;38.932;-9.018;2022-11-11T05:01:34;5.20;;;2.90;;
63032;SDS011;49121;38.932;-9.018;2022-11-11T05:07:09;5.43;;;2.85;;
63032;SDS011;49121;38.932;-9.018;2022-11-11T05:09:46;7.20;;;3.03;;
63032;SDS011;49121;38.932;-9.018;2022-11-11T05:12:05;4.00;;;2.50;;
63032;SDS011;49121;38.932;-9.018;2022-11-11T05:14:24;4.63;;;2.50;;
63032;SDS011;49121;38.932;-9.018;2022-11-11T05:17:15;4.45;;;2.97;;
63032;SDS011;49121;38.932;-9.018;2022-11-11T05:19:52;6.80;;;2.70;;
63032;SDS011;49121;38.932;-9.018;2022-11-11T05:24:57;6.97;;;2.53;;
63032;SDS011;49121;38.932;-9.018;2022-11-11T05:27:35;14.00;;;2.72;;
63032;SDS011;49121;38.932;-9.018;2022-11-11T05:29:55;5.25;;;2.20;;
63032;SDS011;49121;38.932;-9.018;2022-11-11T05:32:15;5.88;;;2.40;;
63032;SDS011;49121;38.932;-9.018;2022-11-11T05:34:36;4.53;;;2.30;;
63032;SDS011;49121;38.932;-9.018;2022-11-11T05:36:55;5.22;;;2.92;;
63032;SDS011;49121;38.932;-9.018;2022-11-11T05:39:14;6.15;;;3.03;;
63032;SDS011;49121;38.932;-9.018;2022-11-11T05:41:32;8.38;;;2.22;;
63032;SDS011;49121;38.932;-9.018;2022-11-11T05:43:51;6.07;;;2.05;;
63032;SDS011;49121;38.932;-9.018;2022-11-11T05:46:11;3.13;;;1.85;;
63032;SDS011;49121;38.932;-9.018;2022-11-11T05:48:30;4.43;;;2.13;;
63032;SDS011;49121;38.932;-9.018;2022-11-11T05:50:51;10.35;;;2.08;;
63032;SDS011;49121;38.932;-9.018;2022-11-11T05:53:11;5.38;;;2.10;;
63032;SDS011;49121;38.932;-9.018;2022-11-11T05:55:30;6.50;;;2.50;;
63032;SDS011;49121;38.932;-9.018;2022-11-11T06:00:28;3.30;;;1.85;;
63032;SDS011;49121;38.932;-9.018;2022-11-11T06:02:47;3.78;;;2.17;;
63032;SDS011;49121;38.932;-9.018;2022-11-11T06:05:06;4.50;;;1.85;;
63032;SDS011;49121;38.932;-9.018;2022-11-11T06:07:26;6.07;;;2.00;;
63032;SDS011;49121;38.932;-9.018;2022-11-11T06:09:46;3.97;;;2.10;;
63032;SDS011;49121;38.932;-9.018;2022-11-11T06:12:05;9.30;;;2.47;;
63032;SDS011;49121;38.932;-9.018;2022-11-11T06:14:25;6.53;;;2.55;;
63032;SDS011;49121;38.932;-9.018;2022-11-11T06:16:44;3.60;;;2.10;;
63032;SDS011;49121;38.932;-9.018;2022-11-11T06:19:03;7.22;;;1.98;;
63032;SDS011;49121;38.932;-9.018;2022-11-11T06:21:23;5.90;;;1.90;;
63032;SDS011;49121;38.932;-9.018;2022-11-11T06:26:20;3.78;;;2.08;;
63032;SDS011;49121;38.932;-9.018;2022-11-11T06:28:43;6.07;;;2.10;;
63032;SDS011;49121;38.932;-9.018;2022-11-11T06:31:04;7.65;;;3.13;;
63032;SDS011;49121;38.932;-9.018;2022-11-11T06:33:25;5.07;;;2.58;;
63032;SDS011;49121;38.932;-9.018;2022-11-11T06:35:44;8.48;;;2.50;;
63032;SDS011;49121;38.932;-9.018;2022-11-11T06:38:04;5.55;;;2.13;;
63032;SDS011;49121;38.932;-9.018;2022-11-11T06:40:27;5.57;;;2.33;;
63032;SDS011;49121;38.932;-9.018;2022-11-11T06:42:45;4.68;;;1.90;;
63032;SDS011;49121;38.932;-9.018;2022-11-11T06:45:04;5.70;;;2.20;;
63032;SDS011;49121;38.932;-9.018;2022-11-11T06:47:24;3.97;;;2.28;;
63032;SDS011;49121;38.932;-9.018;2022-11-11T06:49:43;3.38;;;1.83;;
63032;SDS011;49121;38.932;-9.018;2022-11-11T06:52:02;5.07;;;1.90;;
63032;SDS011;49121;38.932;-9.018;2022-11-11T06:54:21;3.53;;;2.13;;
63032;SDS011;49121;38.932;-9.018;2022-11-11T06:56:41;5.90;;;2.60;;
63032;SDS011;49121;38.932;-9.018;2022-11-11T06:59:00;3.42;;;2.13;;
63032;SDS011;49121;38.932;-9.018;2022-11-11T07:01:19;4.68;;;2.10;;
63032;SDS011;49121;38.932;-9.018;2022-11-11T07:03:39;7.35;;;2.28;;
63032;SDS011;49121;38.932;-9.018;2022-11-11T07:06:04;4.03;;;2.15;;
63032;SDS011;49121;38.932;-9.018;2022-11-11T07:08:24;3.83;;;1.90;;
63032;SDS011;49121;38.932;-9.018;2022-11-11T07:10:44;8.43;;;2.40;;
63032;SDS011;49121;38.932;-9.018;2022-11-11T07:13:06;3.83;;;2.13;;
63032;SDS011;49121;38.932;-9.018;2022-11-11T07:15:25;6.07;;;1.98;;
63032;SDS011;49121;38.932;-9.018;2022-11-11T07:17:46;5.47;;;1.80;;
63032;SDS011;49121;38.932;-9.018;2022-11-11T07:20:05;2.40;;;1.52;;
63032;SDS011;49121;38.932;-9.018;2022-11-11T07:22:26;11.68;;;2.97;;
63032;SDS011;49121;38.932;-9.018;2022-11-11T07:24:45;12.00;;;1.70;;
63032;SDS011;49121;38.932;-9.018;2022-11-11T07:27:04;3.45;;;1.80;;
63032;SDS011;49121;38.932;-9.018;2022-11-11T07:29:23;4.43;;;1.55;;
63032;SDS011;49121;38.932;-9.018;2022-11-11T07:31:42;1.80;;;1.33;;
63032;SDS011;49121;38.932;-9.018;2022-11-11T07:34:02;6.10;;;1.80;;
63032;SDS011;49121;38.932;-9.018;2022-11-11T07:36:21;5.00;;;1.90;;
63032;SDS011;49121;38.932;-9.018;2022-11-11T07:38:40;4.60;;;1.92;;
63032;SDS011;49121;38.932;-9.018;2022-11-11T07:41:09;5.90;;;1.70;;
63032;SDS011;49121;38.932;-9.018;2022-11-11T07:43:28;3.70;;;2.10;;
63032;SDS011;49121;38.932;-9.018;2022-11-11T07:45:47;6.65;;;1.77;;
63032;SDS011;49121;38.932;-9.018;2022-11-11T07:48:06;1.63;;;1.40;;
63032;SDS011;49121;38.932;-9.018;2022-11-11T07:53:03;3.00;;;1.70;;
63032;SDS011;49121;38.932;-9.018;2022-11-11T07:55:22;6.60;;;1.60;;
63032;SDS011;49121;38.932;-9.018;2022-11-11T07:57:41;5.65;;;2.25;;
63032;SDS011;49121;38.932;-9.018;2022-11-11T08:02:57;3.80;;;1.65;;
63032;SDS011;49121;38.932;-9.018;2022-11-11T08:05:16;3.08;;;1.60;;
63032;SDS011;49121;38.932;-9.018;2022-11-11T08:07:36;5.07;;;2.05;;
63032;SDS011;49121;38.932;-9.018;2022-11-11T08:09:55;4.72;;;1.35;;
63032;SDS011;49121;38.932;-9.018;2022-11-11T08:12:14;1.75;;;1.13;;
63032;SDS011;49121;38.932;-9.018;2022-11-11T08:14:51;1.70;;;1.20;;
63032;SDS011;49121;38.932;-9.018;2022-11-11T08:17:10;6.53;;;1.10;;
63032;SDS011;49121;38.932;-9.018;2022-11-11T08:19:29;2.10;;;1.30;;
63032;SDS011;49121;38.932;-9.018;2022-11-11T08:21:48;1.25;;;1.02;;
63032;SDS011;49121;38.932;-9.018;2022-11-11T08:24:09;3.78;;;1.27;;
63032;SDS011;49121;38.932;-9.018;2022-11-11T08:26:29;5.55;;;1.00;;
63032;SDS011;49121;38.932;-9.018;2022-11-11T08:28:48;1.30;;;1.10;;
63032;SDS011;49121;38.932;-9.018;2022-11-11T08:31:10;2.25;;;1.30;;
63032;SDS011;49121;38.932;-9.018;2022-11-11T08:33:29;2.55;;;1.35;;
63032;SDS011;49121;38.932;-9.018;2022-11-11T08:35:48;3.50;;;1.50;;
63032;SDS011;49121;38.932;-9.018;2022-11-11T08:38:07;5.68;;;1.85;;
63032;SDS011;49121;38.932;-9.018;2022-11-11T08:40:26;2.50;;;1.63;;
63032;SDS011;49121;38.932;-9.018;2022-11-11T08:42:45;4.25;;;1.30;;
63032;SDS011;49121;38.932;-9.018;2022-11-11T08:45:05;1.98;;;1.02;;
63032;SDS011;49121;38.932;-9.018;2022-11-11T08:47:24;2.63;;;1.20;;
63032;SDS011;49121;38.932;-9.018;2022-11-11T08:49:49;2.95;;;1.17;;
63032;SDS011;49121;38.932;-9.018;2022-11-11T08:52:08;1.88;;;1.17;;
63032;SDS011;49121;38.932;-9.018;2022-11-11T08:54:27;2.97;;;1.17;;
63032;SDS011;49121;38.932;-9.018;2022-11-11T08:56:47;4.22;;;1.27;;
63032;SDS011;49121;38.932;-9.018;2022-11-11T08:59:05;2.03;;;0.85;;
63032;SDS011;49121;38.932;-9.018;2022-11-11T09:01:25;3.45;;;1.20;;
63032;SDS011;49121;38.932;-9.018;2022-11-11T09:03:44;2.45;;;0.95;;
63032;SDS011;49121;38.932;-9.018;2022-11-11T09:06:04;3.60;;;0.90;;
63032;SDS011;49121;38.932;-9.018;2022-11-11T09:08:42;1.42;;;1.05;;
63032;SDS011;49121;38.932;-9.018;2022-11-11T09:11:02;3.33;;;1.20;;
63032;SDS011;49121;38.932;-9.018;2022-11-11T09:13:22;1.55;;;0.90;;
63032;SDS011;49121;38.932;-9.018;2022-11-11T09:15:41;4.45;;;1.50;;
63032;SDS011;49121;38.932;-9.018;2022-11-11T09:18:00;3.42;;;1.10;;
63032;SDS011;49121;38.932;-9.018;2022-11-11T09:20:20;2.15;;;0.82;;
63032;SDS011;49121;38.932;-9.018;2022-11-11T09:22:41;2.22;;;1.15;;
63032;SDS011;49121;38.932;-9.018;2022-11-11T09:25:02;3.92;;;0.95;;
63032;SDS011;49121;38.932;-9.018;2022-11-11T09:27:22;2.40;;;0.95;;
63032;SDS011;49121;38.932;-9.018;2022-11-11T09:29:41;6.80;;;2.88;;
63032;SDS011;49121;38.932;-9.018;2022-11-11T09:32:01;5.30;;;2.22;;
63032;SDS011;49121;38.932;-9.018;2022-11-11T09:34:20;3.10;;;1.20;;
63032;SDS011;49121;38.932;-9.018;2022-11-11T09:36:40;2.65;;;1.00;;
63032;SDS011;49121;38.932;-9.018;2022-11-11T09:39:00;5.03;;;1.10;;
63032;SDS011;49121;38.932;-9.018;2022-11-11T09:41:21;1.52;;;1.02;;
63032;SDS011;49121;38.932;-9.018;2022-11-11T09:44:00;1.95;;;0.90;;
63032;SDS011;49121;38.932;-9.018;2022-11-11T09:46:23;4.68;;;1.30;;
63032;SDS011;49121;38.932;-9.018;2022-11-11T09:48:51;7.10;;;1.23;;
63032;SDS011;49121;38.932;-9.018;2022-11-11T09:51:23;3.53;;;1.60;;
63032;SDS011;49121;38.932;-9.018;2022-11-11T09:53:49;1.83;;;1.10;;
63032;SDS011;49121;38.932;-9.018;2022-11-11T09:56:14;2.58;;;1.40;;
63032;SDS011;49121;38.932;-9.018;2022-11-11T09:58:45;3.28;;;1.50;;
63032;SDS011;49121;38.932;-9.018;2022-11-11T10:03:30;5.10;;;1.50;;
63032;SDS011;49121;38.932;-9.018;2022-11-11T10:06:06;7.03;;;1.40;;
63032;SDS011;49121;38.932;-9.018;2022-11-11T10:09:17;2.33;;;1.35;;
63032;SDS011;49121;38.932;-9.018;2022-11-11T10:11:27;2.08;;;1.45;;
63032;SDS011;49121;38.932;-9.018;2022-11-11T10:13:57;3.80;;;1.65;;
63032;SDS011;49121;38.932;-9.018;2022-11-11T10:22:12;3.35;;;1.77;;
63032;SDS011;49121;38.932;-9.018;2022-11-11T10:24:31;2.58;;;1.52;;
63032;SDS011;49121;38.932;-9.018;2022-11-11T10:26:53;3.95;;;1.70;;
63032;SDS011;49121;38.932;-9.018;2022-11-11T10:29:19;2.33;;;1.67;;
63032;SDS011;49121;38.932;-9.018;2022-11-11T10:31:40;5.28;;;1.77;;
63032;SDS011;49121;38.932;-9.018;2022-11-11T10:34:02;3.70;;;1.30;;
63032;SDS011;49121;38.932;-9.018;2022-11-11T10:36:23;4.30;;;1.40;;
63032;SDS011;49121;38.932;-9.018;2022-11-11T10:39:00;3.10;;;1.40;;
63032;SDS011;49121;38.932;-9.018;2022-11-11T10:41:26;1.73;;;1.40;;
63032;SDS011;49121;38.932;-9.018;2022-11-11T10:43:51;7.18;;;1.73;;
63032;SDS011;49121;38.932;-9.018;2022-11-11T10:46:15;5.95;;;1.70;;
63032;SDS011;49121;38.932;-9.018;2022-11-11T10:49:06;5.57;;;1.90;;
63032;SDS011;49121;38.932;-9.018;2022-11-11T10:51:31;3.08;;;1.48;;
63032;SDS011;49121;38.932;-9.018;2022-11-11T10:59:21;4.28;;;1.60;;
63032;SDS011;49121;38.932;-9.018;2022-11-11T11:04:14;3.08;;;1.70;;
63032;SDS011;49121;38.932;-9.018;2022-11-11T11:06:42;2.47;;;1.60;;
63032;SDS011;49121;38.932;-9.018;2022-11-11T11:09:07;4.57;;;2.03;;
63032;SDS011;49121;38.932;-9.018;2022-11-11T11:11:38;4.22;;;2.13;;
63032;SDS011;49121;38.932;-9.018;2022-11-11T11:14:46;3.90;;;1.92;;
63032;SDS011;49121;38.932;-9.018;2022-11-11T11:16:51;5.15;;;2.38;;
63032;SDS011;49121;38.932;-9.018;2022-11-11T11:19:17;3.13;;;2.20;;
63032;SDS011;49121;38.932;-9.018;2022-11-11T11:24:21;2.67;;;1.73;;
63032;SDS011;49121;38.932;-9.018;2022-11-11T11:26:45;2.78;;;2.05;;
63032;SDS011;49121;38.932;-9.018;2022-11-11T11:29:06;6.20;;;2.17;;
63032;SDS011;49121;38.932;-9.018;2022-11-11T11:31:35;4.63;;;2.10;;
63032;SDS011;49121;38.932;-9.018;2022-11-11T11:33:56;4.53;;;2.25;;
63032;SDS011;49121;38.932;-9.018;2022-11-11T11:36:18;3.10;;;2.30;;
63032;SDS011;49121;38.932;-9.018;2022-11-11T11:38:40;5.00;;;2.20;;
63032;SDS011;49121;38.932;-9.018;2022-11-11T11:41:01;4.93;;;2.13;;
63032;SDS011;49121;38.932;-9.018;2022-11-11T11:45:57;4.88;;;2.25;;
63032;SDS011;49121;38.932;-9.018;2022-11-11T11:50:50;2.90;;;1.70;;
63032;SDS011;49121;38.932;-9.018;2022-11-11T11:55:39;5.13;;;2.53;;
63032;SDS011;49121;38.932;-9.018;2022-11-11T12:00:40;3.80;;;2.03;;
63032;SDS011;49121;38.932;-9.018;2022-11-11T12:05:54;3.58;;;1.45;;
63032;SDS011;49121;38.932;-9.018;2022-11-11T12:08:21;3.15;;;2.10;;
63032;SDS011;49121;38.932;-9.018;2022-11-11T12:14:04;4.63;;;2.35;;
63032;SDS011;49121;38.932;-9.018;2022-11-11T12:19:09;2.63;;;2.05;;
63032;SDS011;49121;38.932;-9.018;2022-11-11T12:27:32;5.43;;;2.70;;
63032;SDS011;49121;38.932;-9.018;2022-11-11T12:30:09;5.93;;;2.13;;
63032;SDS011;49121;38.932;-9.018;2022-11-11T12:48:34;7.75;;;1.90;;
63032;SDS011;49121;38.932;-9.018;2022-11-11T12:56:09;3.10;;;2.03;;
63032;SDS011;49121;38.932;-9.018;2022-11-11T13:06:51;3.15;;;1.65;;
63032;SDS011;49121;38.932;-9.018;2022-11-11T13:12:13;3.45;;;1.90;;
63032;SDS011;49121;38.932;-9.018;2022-11-11T13:17:13;4.22;;;1.63;;
63032;SDS011;49121;38.932;-9.018;2022-11-11T13:19:36;4.97;;;2.03;;
63032;SDS011;49121;38.932;-9.018;2022-11-11T13:22:00;2.15;;;1.40;;
63032;SDS011;49121;38.932;-9.018;2022-11-11T13:24:24;3.30;;;1.60;;
63032;SDS011;49121;38.932;-9.018;2022-11-11T13:26:46;3.00;;;1.35;;
63032;SDS011;49121;38.932;-9.018;2022-11-11T13:32:08;2.78;;;1.70;;
63032;SDS011;49121;38.932;-9.018;2022-11-11T13:34:31;7.38;;;2.30;;
63032;SDS011;49121;38.932;-9.018;2022-11-11T13:36:55;1.67;;;1.20;;
63032;SDS011;49121;38.932;-9.018;2022-11-11T13:39:23;2.42;;;1.45;;
63032;SDS011;49121;38.932;-9.018;2022-11-11T13:41:48;2.47;;;1.40;;
63032;SDS011;49121;38.932;-9.018;2022-11-11T13:44:16;4.50;;;1.50;;
63032;SDS011;49121;38.932;-9.018;2022-11-11T13:46:45;1.98;;;1.33;;
63032;SDS011;49121;38.932;-9.018;2022-11-11T13:49:06;2.72;;;1.23;;
63032;SDS011;49121;38.932;-9.018;2022-11-11T13:53:53;2.67;;;1.58;;
63032;SDS011;49121;38.932;-9.018;2022-11-11T13:56:23;2.55;;;1.40;;
63032;SDS011;49121;38.932;-9.018;2022-11-11T13:58:46;5.22;;;1.65;;
63032;SDS011;49121;38.932;-9.018;2022-11-11T14:03:29;2.90;;;1.90;;
63032;SDS011;49121;38.932;-9.018;2022-11-11T14:11:05;5.93;;;1.80;;
63032;SDS011;49121;38.932;-9.018;2022-11-11T14:13:45;3.33;;;1.20;;
63032;SDS011;49121;38.932;-9.018;2022-11-11T14:16:06;2.90;;;1.50;;
63032;SDS011;49121;38.932;-9.018;2022-11-11T14:18:38;1.90;;;1.20;;
63032;SDS011;49121;38.932;-9.018;2022-11-11T14:20:58;2.35;;;1.52;;
63032;SDS011;49121;38.932;-9.018;2022-11-11T14:28:33;2.72;;;1.20;;
63032;SDS011;49121;38.932;-9.018;2022-11-11T14:31:33;5.32;;;1.70;;
63032;SDS011;49121;38.932;-9.018;2022-11-11T14:33:54;1.60;;;1.10;;
63032;SDS011;49121;38.932;-9.018;2022-11-11T14:47:08;2.58;;;1.10;;
63032;SDS011;49121;38.932;-9.018;2022-11-11T14:52:12;2.58;;;1.33;;
63032;SDS011;49121;38.932;-9.018;2022-11-11T14:54:41;3.92;;;1.30;;
63032;SDS011;49121;38.932;-9.018;2022-11-11T14:59:32;1.45;;;1.02;;
63032;SDS011;49121;38.932;-9.018;2022-11-11T15:01:53;2.67;;;1.05;;
63032;SDS011;49121;38.932;-9.018;2022-11-11T15:04:13;2.95;;;1.15;;
63032;SDS011;49121;38.932;-9.018;2022-11-11T15:06:38;1.90;;;1.00;;
63032;SDS011;49121;38.932;-9.018;2022-11-11T15:27:26;3.17;;;1.23;;
63032;SDS011;49121;38.932;-9.018;2022-11-11T15:33:02;5.47;;;1.10;;
63032;SDS011;49121;38.932;-9.018;2022-11-11T15:38:09;3.22;;;1.00;;
63032;SDS011;49121;38.932;-9.018;2022-11-11T15:40:39;2.13;;;1.30;;
63032;SDS011;49121;38.932;-9.018;2022-11-11T15:43:02;1.70;;;1.08;;
63032;SDS011;49121;38.932;-9.018;2022-11-11T15:45:24;2.28;;;1.10;;
63032;SDS011;49121;38.932;-9.018;2022-11-11T15:47:54;2.58;;;0.80;;
63032;SDS011;49121;38.932;-9.018;2022-11-11T15:50:18;3.22;;;1.02;;
63032;SDS011;49121;38.932;-9.018;2022-11-11T15:52:53;1.52;;;1.00;;
63032;SDS011;49121;38.932;-9.018;2022-11-11T15:55:23;2.03;;;0.90;;
63032;SDS011;49121;38.932;-9.018;2022-11-11T15:57:44;2.70;;;0.80;;
63032;SDS011;49121;38.932;-9.018;2022-11-11T16:00:22;2.53;;;1.13;;
63032;SDS011;49121;38.932;-9.018;2022-11-11T16:02:42;1.42;;;0.80;;
63032;SDS011;49121;38.932;-9.018;2022-11-11T16:05:06;1.55;;;1.00;;
63032;SDS011;49121;38.932;-9.018;2022-11-11T16:07:37;1.83;;;1.17;;
63032;SDS011;49121;38.932;-9.018;2022-11-11T16:10:35;6.13;;;1.20;;
63032;SDS011;49121;38.932;-9.018;2022-11-11T16:12:48;4.05;;;1.10;;
63032;SDS011;49121;38.932;-9.018;2022-11-11T16:15:18;1.00;;;0.90;;
63032;SDS011;49121;38.932;-9.018;2022-11-11T16:17:59;2.15;;;1.00;;
63032;SDS011;49121;38.932;-9.018;2022-11-11T16:20:27;3.67;;;1.25;;
63032;SDS011;49121;38.932;-9.018;2022-11-11T16:22:54;3.47;;;0.95;;
63032;SDS011;49121;38.932;-9.018;2022-11-11T16:25:20;6.72;;;1.10;;
63032;SDS011;49121;38.932;-9.018;2022-11-11T16:27:40;2.20;;;1.10;;
63032;SDS011;49121;38.932;-9.018;2022-11-11T16:30:15;5.03;;;1.40;;
63032;SDS011;49121;38.932;-9.018;2022-11-11T16:32:54;3.75;;;1.30;;
63032;SDS011;49121;38.932;-9.018;2022-11-11T16:35:24;2.60;;;1.00;;
63032;SDS011;49121;38.932;-9.018;2022-11-11T16:37:54;2.38;;;1.15;;
63032;SDS011;49121;38.932;-9.018;2022-11-11T16:42:45;6.13;;;4.10;;
63032;SDS011;49121;38.932;-9.018;2022-11-11T16:45:05;6.03;;;3.55;;
63032;SDS011;49121;38.932;-9.018;2022-11-11T16:47:40;7.80;;;4.70;;
63032;SDS011;49121;38.932;-9.018;2022-11-11T16:52:57;5.78;;;2.15;;
63032;SDS011;49121;38.932;-9.018;2022-11-11T16:55:21;5.45;;;1.90;;
63032;SDS011;49121;38.932;-9.018;2022-11-11T16:57:43;4.30;;;1.60;;
63032;SDS011;49121;38.932;-9.018;2022-11-11T17:00:03;19.20;;;2.13;;
63032;SDS011;49121;38.932;-9.018;2022-11-11T17:02:23;4.75;;;2.05;;
63032;SDS011;49121;38.932;-9.018;2022-11-11T17:04:46;3.35;;;1.95;;
63032;SDS011;49121;38.932;-9.018;2022-11-11T17:07:25;4.20;;;2.00;;
63032;SDS011;49121;38.932;-9.018;2022-11-11T17:10:08;6.43;;;1.70;;
63032;SDS011;49121;38.932;-9.018;2022-11-11T17:15:13;6.28;;;1.80;;
63032;SDS011;49121;38.932;-9.018;2022-11-11T17:17:33;5.22;;;1.50;;
63032;SDS011;49121;38.932;-9.018;2022-11-11T17:19:54;5.63;;;1.70;;
63032;SDS011;49121;38.932;-9.018;2022-11-11T17:22:14;5.32;;;1.67;;
63032;SDS011;49121;38.932;-9.018;2022-11-11T17:24:34;3.08;;;1.48;;
63032;SDS011;49121;38.932;-9.018;2022-11-11T17:26:54;7.20;;;1.90;;
63032;SDS011;49121;38.932;-9.018;2022-11-11T17:29:13;8.75;;;2.30;;
63032;SDS011;49121;38.932;-9.018;2022-11-11T17:31:32;11.02;;;2.15;;
63032;SDS011;49121;38.932;-9.018;2022-11-11T17:33:51;5.50;;;2.28;;
63032;SDS011;49121;38.932;-9.018;2022-11-11T17:36:11;3.40;;;1.70;;
63032;SDS011;49121;38.932;-9.018;2022-11-11T17:41:13;5.70;;;2.33;;